createdAt,value
2022-10-26T00:00:43.119Z,20.57
2022-10-26T00:05:51.450Z,20.23
2022-10-26T00:10:57.927Z,23.77
2022-10-26T00:16:02.234Z,22.23
2022-10-26T00:21:10.777Z,19.03
2022-10-26T00:26:15.381Z,22.00
2022-10-26T00:31:19.402Z,27.90
2022-10-26T00:36:27.769Z,15.30
2022-10-26T00:41:32.430Z,16.98
2022-10-26T00:46:39.989Z,23.33
2022-10-26T00:51:49.387Z,29.67
2022-10-26T00:56:52.312Z,27.53
2022-10-26T01:01:56.394Z,24.40
2022-10-26T01:07:17.025Z,31.60
2022-10-26T01:12:31.637Z,30.23
2022-10-26T01:17:47.932Z,34.60
2022-10-26T01:23:16.176Z,30.00
2022-10-26T01:28:37.066Z,35.20
2022-10-26T01:33:45.891Z,30.60
2022-10-26T01:39:11.970Z,41.87
2022-10-26T01:44:23.585Z,33.60
2022-10-26T01:49:33.784Z,30.00
2022-10-26T02:00:05.094Z,33.60
2022-10-26T02:05:27.807Z,37.87
2022-10-26T02:11:06.323Z,29.07
2022-10-26T02:16:45.012Z,23.67
2022-10-26T02:21:55.084Z,25.23
2022-10-26T02:26:59.601Z,21.47
2022-10-26T02:32:06.689Z,30.27
2022-10-26T02:37:09.360Z,28.07
2022-10-26T02:42:11.747Z,30.80
2022-10-26T02:47:16.388Z,39.70
2022-10-26T02:52:24.607Z,41.43
2022-10-26T02:57:41.140Z,37.90
2022-10-26T03:02:47.742Z,43.93
2022-10-26T03:07:52.934Z,44.03
2022-10-26T03:12:54.857Z,36.13
2022-10-26T03:17:56.601Z,39.97
2022-10-26T03:23:01.273Z,44.30
2022-10-26T03:28:04.508Z,34.47
2022-10-26T03:33:12.734Z,30.47
2022-10-26T03:38:15.994Z,41.50
2022-10-26T03:43:22.891Z,60.93
2022-10-26T03:48:24.687Z,62.77
2022-10-26T03:53:27.040Z,58.30
2022-10-26T03:58:28.839Z,49.53
2022-10-26T04:03:34.130Z,59.30
2022-10-26T04:08:35.965Z,65.03
2022-10-26T04:13:38.212Z,52.73
2022-10-26T04:18:42.221Z,68.47
2022-10-26T04:23:46.711Z,56.00
2022-10-26T04:28:48.510Z,57.00
2022-10-26T04:33:50.372Z,55.20
2022-10-26T04:38:57.320Z,75.87
2022-10-26T04:44:02.596Z,55.73
2022-10-26T04:49:04.813Z,58.90
2022-10-26T04:54:07.244Z,69.27
2022-10-26T04:59:09.283Z,58.77
2022-10-26T05:04:22.907Z,62.13
2022-10-26T05:09:26.806Z,59.83
2022-10-26T05:14:30.947Z,54.23
2022-10-26T05:19:34.961Z,64.93
2022-10-26T05:24:36.812Z,55.40
2022-10-26T05:29:40.826Z,62.10
2022-10-26T05:34:53.373Z,50.60
2022-10-26T05:39:59.748Z,50.33
2022-10-26T05:45:03.979Z,69.97
2022-10-26T05:50:08.797Z,64.77
2022-10-26T05:55:17.802Z,83.57
2022-10-26T06:00:24.121Z,56.63
2022-10-26T06:05:28.642Z,58.97
2022-10-26T06:10:34.985Z,57.07
2022-10-26T06:16:04.226Z,55.07
2022-10-26T06:21:27.242Z,65.33
2022-10-26T06:26:40.773Z,66.67
2022-10-26T06:31:47.333Z,62.30
2022-10-26T06:41:56.882Z,73.50
2022-10-26T06:47:07.492Z,71.90
2022-10-26T06:52:20.023Z,57.20
2022-10-26T06:57:29.078Z,57.33
2022-10-26T07:02:33.578Z,57.60
2022-10-26T07:07:36.312Z,57.30
2022-10-26T07:12:41.824Z,57.67
2022-10-26T07:17:48.852Z,49.00
2022-10-26T07:22:57.859Z,52.30
2022-10-26T07:28:02.217Z,44.37
2022-10-26T07:33:08.893Z,43.80
2022-10-26T07:38:12.809Z,37.20
2022-10-26T07:43:17.961Z,37.13
2022-10-26T07:48:19.822Z,33.27
2022-10-26T07:53:30.547Z,33.57
2022-10-26T07:58:36.377Z,31.67
2022-10-26T08:03:38.374Z,29.13
2022-10-26T08:08:49.899Z,25.42
2022-10-26T08:13:56.514Z,35.58
2022-10-26T08:19:01.862Z,28.97
2022-10-26T08:24:05.042Z,25.37
2022-10-26T08:29:10.229Z,30.53
2022-10-26T08:34:12.142Z,25.23
2022-10-26T08:39:16.236Z,22.17
2022-10-26T08:44:23.040Z,20.95
2022-10-26T08:49:54.809Z,23.42
2022-10-26T08:54:57.888Z,19.13
2022-10-26T09:00:03.899Z,21.90
2022-10-26T09:05:16.306Z,18.77
2022-10-26T09:11:02.804Z,19.70
2022-10-26T09:16:23.738Z,15.73
2022-10-26T09:21:31.200Z,12.68
2022-10-26T09:26:55.010Z,13.50
2022-10-26T09:31:59.363Z,17.02
2022-10-26T09:37:24.640Z,15.40
2022-10-26T09:42:36.701Z,14.13
2022-10-26T09:47:47.071Z,12.80
2022-10-26T09:52:53.503Z,13.77
2022-10-26T09:57:57.886Z,12.82
2022-10-26T10:03:02.132Z,13.45
2022-10-26T10:08:17.611Z,13.43
2022-10-26T10:13:26.130Z,14.40
2022-10-26T10:18:32.718Z,13.43
2022-10-26T10:23:53.416Z,15.48
2022-10-26T10:29:00.984Z,10.63
2022-10-26T10:34:17.999Z,11.52
2022-10-26T10:39:35.648Z,9.90
2022-10-26T10:44:46.728Z,8.95
2022-10-26T10:50:00.416Z,9.10
2022-10-26T10:55:33.046Z,11.07
2022-10-26T11:00:37.427Z,11.18
2022-10-26T11:06:09.526Z,14.07
2022-10-26T11:11:25.706Z,8.70
2022-10-26T11:16:33.857Z,7.97
2022-10-26T11:21:41.239Z,9.57
2022-10-26T11:26:55.836Z,6.78
2022-10-26T11:32:11.313Z,7.68
2022-10-26T11:37:45.589Z,11.45
2022-10-26T11:42:58.135Z,10.20
2022-10-26T11:48:28.320Z,12.55
2022-10-26T11:53:41.276Z,9.55
2022-10-26T11:58:46.377Z,12.68
2022-10-26T12:03:50.989Z,11.55
2022-10-26T12:08:59.968Z,11.10
2022-10-26T12:14:17.928Z,8.90
2022-10-26T12:19:30.255Z,8.75
2022-10-26T12:24:35.588Z,10.68
2022-10-26T12:29:46.902Z,10.85
2022-10-26T12:34:51.873Z,8.98
2022-10-26T12:39:53.915Z,10.13
2022-10-26T12:44:58.930Z,10.82
2022-10-26T12:50:00.770Z,12.18
2022-10-26T12:55:28.353Z,9.57
2022-10-26T13:00:30.590Z,7.75
2022-10-26T13:06:07.638Z,7.45
2022-10-26T13:11:21.606Z,5.65
2022-10-26T13:16:24.777Z,10.30
2022-10-26T13:21:27.516Z,7.75
2022-10-26T13:27:07.309Z,14.70
2022-10-26T13:32:14.089Z,7.47
2022-10-26T13:37:27.265Z,6.80
2022-10-26T13:42:45.618Z,8.80
2022-10-26T13:48:12.852Z,6.18
2022-10-26T13:53:24.557Z,8.60
2022-10-26T13:58:33.193Z,8.52
2022-10-26T14:03:40.068Z,9.52
2022-10-26T14:08:44.642Z,8.05
2022-10-26T14:13:49.892Z,14.45
2022-10-26T14:18:52.339Z,12.98
2022-10-26T14:23:56.213Z,17.08
2022-10-26T14:29:00.728Z,11.57
2022-10-26T14:34:06.365Z,8.20
2022-10-26T14:39:18.273Z,6.65
2022-10-26T14:44:23.969Z,8.52
2022-10-26T14:49:27.834Z,10.40
2022-10-26T14:54:30.204Z,9.50
2022-10-26T14:59:32.121Z,11.40
2022-10-26T15:04:35.010Z,11.70
2022-10-26T15:09:46.257Z,7.88
2022-10-26T15:14:54.124Z,8.90
2022-10-26T15:19:56.087Z,6.85
2022-10-26T15:24:59.582Z,7.57
2022-10-26T15:30:37.154Z,6.10
2022-10-26T15:35:41.452Z,10.63
2022-10-26T15:40:47.117Z,6.50
2022-10-26T15:45:49.223Z,11.20
2022-10-26T15:50:53.700Z,8.45
2022-10-26T15:55:57.446Z,8.45
2022-10-26T16:00:59.888Z,5.03
2022-10-26T16:06:02.717Z,7.28
2022-10-26T16:11:04.870Z,10.00
2022-10-26T16:16:15.895Z,10.32
2022-10-26T16:21:23.356Z,8.90
2022-10-26T16:26:25.420Z,7.53
2022-10-26T16:31:30.250Z,7.85
2022-10-26T16:36:34.677Z,12.95
2022-10-26T16:41:36.928Z,7.70
2022-10-26T16:46:41.328Z,10.48
2022-10-26T16:51:45.508Z,9.05
2022-10-26T16:56:47.364Z,9.38
2022-10-26T17:01:51.427Z,11.80
2022-10-26T17:06:58.099Z,14.38
2022-10-26T17:12:02.156Z,9.02
2022-10-26T17:17:05.032Z,7.00
2022-10-26T17:22:09.071Z,7.65
2022-10-26T17:27:13.351Z,12.30
2022-10-26T17:32:18.319Z,11.82
2022-10-26T17:37:33.923Z,9.03
2022-10-26T17:42:40.670Z,11.60
2022-10-26T17:47:43.829Z,8.82
2022-10-26T17:52:48.371Z,11.63
2022-10-26T17:57:54.563Z,11.65
2022-10-26T18:02:56.430Z,12.30
2022-10-26T18:07:59.384Z,16.33
2022-10-26T18:13:03.782Z,9.68
2022-10-26T18:18:07.931Z,11.48
2022-10-26T18:23:10.067Z,18.30
2022-10-26T18:28:17.558Z,19.10
2022-10-26T18:33:19.750Z,16.05
2022-10-26T18:38:21.684Z,14.45
2022-10-26T18:43:23.891Z,20.75
2022-10-26T18:48:25.769Z,15.40
2022-10-26T18:53:27.677Z,19.13
2022-10-26T18:58:31.525Z,15.80
2022-10-26T19:03:33.967Z,18.30
2022-10-26T19:08:38.079Z,17.02
2022-10-26T19:13:42.455Z,19.15
2022-10-26T19:18:44.593Z,16.33
2022-10-26T19:23:57.744Z,18.95
2022-10-26T19:29:06.174Z,16.23
2022-10-26T19:34:11.333Z,18.73
2022-10-26T19:39:15.447Z,14.55
2022-10-26T19:44:22.019Z,12.45
2022-10-26T19:49:29.343Z,16.98
2022-10-26T19:54:31.377Z,17.67
2022-10-26T19:59:35.489Z,15.98
2022-10-26T20:04:40.496Z,19.90
2022-10-26T20:09:42.320Z,16.70
2022-10-26T20:14:46.128Z,19.85
2022-10-26T20:19:55.844Z,16.35
2022-10-26T20:25:00.426Z,21.45
2022-10-26T20:30:02.263Z,20.70
2022-10-26T20:35:06.217Z,19.77
2022-10-26T20:40:10.594Z,18.30
2022-10-26T20:45:16.790Z,19.58
2022-10-26T20:50:27.032Z,18.05
2022-10-26T20:55:46.403Z,17.05
2022-10-26T21:00:59.368Z,19.33
2022-10-26T21:06:10.435Z,21.00
2022-10-26T21:11:14.553Z,21.00
2022-10-26T21:16:17.939Z,17.83
2022-10-26T21:21:30.294Z,20.02
2022-10-26T21:26:32.196Z,16.65
2022-10-26T21:31:36.197Z,15.85
2022-10-26T21:36:40.130Z,22.48
2022-10-26T21:41:44.466Z,20.83
2022-10-26T21:46:50.816Z,26.23
2022-10-26T21:51:55.080Z,25.05
2022-10-26T21:57:00.443Z,17.60
2022-10-26T22:02:04.565Z,18.45
2022-10-26T22:07:06.448Z,20.70
2022-10-26T22:12:08.710Z,21.35
2022-10-26T22:17:15.260Z,18.65
2022-10-26T22:22:21.882Z,17.98
2022-10-26T22:27:25.856Z,19.30
2022-10-26T22:32:27.654Z,24.40
2022-10-26T22:37:31.951Z,21.73
2022-10-26T22:42:35.846Z,17.05
2022-10-26T22:47:40.086Z,22.02
2022-10-26T22:52:47.896Z,16.10
2022-10-26T22:57:50.034Z,17.83
2022-10-26T23:02:56.782Z,21.17
2022-10-26T23:08:00.801Z,23.02
2022-10-26T23:13:08.185Z,22.27
2022-10-26T23:18:13.448Z,24.33
2022-10-26T23:23:18.978Z,24.58
2022-10-26T23:28:20.816Z,23.27
2022-10-26T23:33:27.441Z,23.60
2022-10-26T23:38:34.634Z,23.05
2022-10-26T23:43:36.475Z,20.73
2022-10-26T23:48:45.276Z,21.27
2022-10-26T23:53:51.207Z,17.85
2022-10-26T23:58:57.645Z,24.08
